Time;durP1;ratioP1;P1;durP2;ratioP2;P2;SDS_P1;SDS_P2;PMS_P1;PMS_P2;Temp;Humidity;BMP_temperature;BMP_pressure;BME280_temperature;BME280_humidity;BME280_pressure;Samples;Min_cycle;Max_cycle;Signal;HPM_P1;HPM_P2
2022/11/06 00:01:09;;;;;;;16.97;11.10;;;6.60;99.90;;;;;;4946180;29;20426;-80
2022/11/06 00:03:56;;;;;;;18.60;10.13;;;6.40;99.90;;;;;;4912640;29;20491;-80
2022/11/06 00:06:50;;;;;;;16.43;8.90;;;6.40;99.90;;;;;;4888754;29;20384;-80
2022/11/06 00:09:35;;;;;;;17.43;10.63;;;6.30;99.90;;;;;;4952188;29;20507;-80
2022/11/06 00:12:24;;;;;;;15.67;9.50;;;6.50;99.90;;;;;;4937269;29;20438;-80
2022/11/06 00:15:33;;;;;;;13.70;9.03;;;6.70;99.90;;;;;;4938985;29;20974;-80
2022/11/06 00:18:21;;;;;;;15.27;9.20;;;6.80;99.90;;;;;;4917368;29;20387;-80
2022/11/06 00:21:14;;;;;;;20.07;13.60;;;6.80;99.90;;;;;;4906933;29;20384;-81
2022/11/06 00:24:00;;;;;;;13.57;9.17;;;6.80;99.90;;;;;;4874775;29;20506;-80
2022/11/06 00:27:09;;;;;;;12.73;8.10;;;6.80;99.90;;;;;;4850349;29;20402;-81
2022/11/06 00:29:56;;;;;;;12.90;10.10;;;6.90;99.90;;;;;;4808374;29;20381;-81
2022/11/06 00:32:43;;;;;;;17.03;11.17;;;6.90;99.90;;;;;;4795820;29;20417;-80
2022/11/06 00:35:29;;;;;;;13.77;8.93;;;6.70;99.90;;;;;;4814821;29;20498;-80
2022/11/06 00:38:15;;;;;;;15.60;9.10;;;6.70;99.90;;;;;;4801352;29;20405;-80
2022/11/06 00:41:10;;;;;;;13.90;10.77;;;6.70;99.90;;;;;;4814647;29;20714;-80
2022/11/06 00:44:15;;;;;;;20.87;11.40;;;6.50;99.90;;;;;;4789070;30;20564;-81
2022/11/06 00:47:01;;;;;;;13.10;8.40;;;6.60;99.90;;;;;;4773401;30;20387;-80
2022/11/06 00:50:19;;;;;;;13.20;9.10;;;6.40;99.90;;;;;;4761861;29;20435;-80
2022/11/06 00:53:04;;;;;;;15.43;9.90;;;6.20;99.90;;;;;;4809324;29;20448;-81
2022/11/06 00:55:52;;;;;;;12.03;8.23;;;6.20;99.90;;;;;;4831310;29;20386;-80
2022/11/06 00:58:59;;;;;;;12.67;8.90;;;6.20;99.90;;;;;;4800797;29;20467;-80
2022/11/06 01:02:08;;;;;;;17.87;8.40;;;6.20;99.90;;;;;;4777100;30;20523;-81
2022/11/06 01:05:13;;;;;;;17.00;11.67;;;6.20;99.90;;;;;;4751712;30;20463;-81
2022/11/06 01:08:05;;;;;;;21.03;10.00;;;6.30;99.90;;;;;;4766549;30;20444;-80
2022/11/06 01:10:50;;;;;;;14.73;10.30;;;6.30;99.90;;;;;;4804629;29;20393;-79
2022/11/06 01:13:39;;;;;;;15.27;10.07;;;6.30;99.90;;;;;;4800890;30;20385;-79
2022/11/06 01:16:47;;;;;;;16.80;11.03;;;6.40;99.90;;;;;;4760124;30;20428;-80
2022/11/06 01:19:37;;;;;;;16.67;10.00;;;6.40;99.90;;;;;;4777684;30;20408;-80
2022/11/06 01:22:24;;;;;;;22.97;10.33;;;6.30;99.90;;;;;;4760238;30;20514;-80
2022/11/06 01:25:31;;;;;;;24.07;10.27;;;6.40;99.90;;;;;;4758515;30;20450;-80
2022/11/06 01:28:19;;;;;;;14.60;9.77;;;6.40;99.90;;;;;;4822780;29;20443;-80
2022/11/06 01:31:13;;;;;;;10.20;7.60;;;6.50;99.90;;;;;;4825278;29;20434;-81
2022/11/06 01:34:07;;;;;;;17.87;10.80;;;6.30;99.90;;;;;;4854350;29;20381;-79
2022/11/06 01:36:55;;;;;;;16.60;8.10;;;6.20;99.90;;;;;;4873499;29;20393;-80
2022/11/06 01:39:42;;;;;;;22.23;9.20;;;6.10;99.90;;;;;;4878407;29;20528;-78
2022/11/06 01:42:29;;;;;;;13.73;9.20;;;6.10;99.90;;;;;;4905227;29;20468;-77
2022/11/06 01:45:27;;;;;;;17.90;11.37;;;6.00;99.90;;;;;;4865915;29;20458;-78
2022/11/06 01:48:16;;;;;;;14.47;10.53;;;5.90;99.90;;;;;;4922430;29;20411;-77
2022/11/06 01:51:15;;;;;;;14.50;8.37;;;5.90;99.90;;;;;;4952726;29;20429;-77
2022/11/06 01:54:24;;;;;;;21.03;10.80;;;6.00;99.90;;;;;;4929155;29;20386;-79
2022/11/06 01:57:52;;;;;;;16.57;10.57;;;6.00;99.90;;;;;;4909005;29;20472;-80
2022/11/06 02:00:47;;;;;;;16.23;11.83;;;6.20;99.90;;;;;;4889090;29;20508;-81
2022/11/06 02:04:01;;;;;;;13.27;10.50;;;6.30;99.90;;;;;;4881425;29;20474;-81
2022/11/06 02:06:48;;;;;;;15.30;8.97;;;6.20;99.90;;;;;;4858051;29;20582;-82
2022/11/06 02:09:38;;;;;;;13.50;8.77;;;6.30;99.90;;;;;;4858768;29;20414;-81
2022/11/06 02:12:45;;;;;;;16.03;9.00;;;6.30;99.90;;;;;;4835105;29;20536;-81
2022/11/06 02:15:43;;;;;;;16.77;9.47;;;6.20;99.90;;;;;;4836532;29;20536;-81
2022/11/06 02:18:52;;;;;;;16.47;9.83;;;6.20;99.90;;;;;;4835493;29;20468;-81
2022/11/06 02:22:02;;;;;;;13.87;8.97;;;6.10;99.90;;;;;;4854271;29;20465;-81
2022/11/06 02:25:10;;;;;;;15.20;10.03;;;5.80;99.90;;;;;;4830567;29;20450;-81
2022/11/06 02:28:02;;;;;;;11.23;7.20;;;5.70;99.90;;;;;;4854432;29;20393;-81
2022/11/06 02:30:50;;;;;;;14.73;8.93;;;5.60;99.90;;;;;;4836572;29;20421;-81
2022/11/06 02:33:58;;;;;;;15.63;7.73;;;5.40;99.90;;;;;;4825292;29;20412;-81
2022/11/06 02:36:57;;;;;;;19.70;8.60;;;5.30;99.90;;;;;;4782462;30;20390;-81
2022/11/06 02:39:47;;;;;;;18.60;8.60;;;5.10;99.90;;;;;;4780617;29;21037;-81
2022/11/06 02:42:42;;;;;;;10.53;7.13;;;5.00;99.90;;;;;;4764629;30;20435;-81
2022/11/06 02:45:36;;;;;;;13.23;7.80;;;5.00;99.90;;;;;;4776782;30;20450;-81
2022/11/06 02:48:44;;;;;;;13.07;9.00;;;4.90;99.90;;;;;;4789868;29;20462;-81
2022/11/06 02:51:37;;;;;;;15.53;9.57;;;5.00;99.90;;;;;;4808749;29;20412;-81
2022/11/06 02:54:27;;;;;;;13.80;8.37;;;5.10;99.90;;;;;;4800395;29;20471;-81
2022/11/06 02:57:20;;;;;;;15.20;8.10;;;5.20;99.90;;;;;;4788270;30;20433;-81
2022/11/06 03:00:13;;;;;;;10.87;8.60;;;5.30;99.90;;;;;;4779065;29;20461;-81
2022/11/06 03:03:07;;;;;;;18.43;9.27;;;5.20;99.90;;;;;;4817494;29;20447;-81
2022/11/06 03:06:20;;;;;;;12.20;8.23;;;5.20;99.90;;;;;;4815367;29;20389;-80
2022/11/06 03:09:30;;;;;;;12.73;7.87;;;5.20;99.90;;;;;;4867791;29;20431;-80
2022/11/06 03:12:25;;;;;;;15.00;9.47;;;5.30;99.90;;;;;;4879432;29;20372;-81
2022/11/06 03:15:41;;;;;;;17.00;8.67;;;5.30;99.90;;;;;;4860712;29;20456;-81
2022/11/06 03:18:41;;;;;;;10.37;7.70;;;5.40;99.90;;;;;;4824176;29;20451;-81
2022/11/06 03:21:41;;;;;;;19.83;9.10;;;5.30;99.90;;;;;;4843129;29;20469;-81
2022/11/06 03:24:34;;;;;;;10.47;7.23;;;5.00;99.90;;;;;;4843895;29;20442;-80
2022/11/06 03:27:35;;;;;;;21.47;8.77;;;5.10;99.90;;;;;;4836463;29;20413;-81
2022/11/06 03:30:21;;;;;;;20.13;8.80;;;5.10;99.90;;;;;;4836746;29;20387;-81
2022/11/06 03:33:32;;;;;;;15.80;8.43;;;4.90;99.90;;;;;;4835643;29;20379;-80
2022/11/06 03:36:26;;;;;;;11.13;7.20;;;5.10;99.90;;;;;;4836970;29;20387;-80
2022/11/06 03:39:37;;;;;;;11.23;7.93;;;5.30;99.90;;;;;;4831975;29;20417;-81
2022/11/06 03:42:29;;;;;;;13.13;8.30;;;5.30;99.90;;;;;;4812551;29;20422;-81
2022/11/06 03:45:19;;;;;;;16.17;8.87;;;5.40;99.90;;;;;;4800135;29;20510;-81
2022/11/06 03:48:11;;;;;;;11.50;8.50;;;5.40;99.90;;;;;;4817292;29;20380;-80
2022/11/06 03:51:11;;;;;;;14.10;7.90;;;5.50;99.90;;;;;;4819928;29;20461;-81
2022/11/06 03:54:02;;;;;;;10.60;7.90;;;5.50;99.90;;;;;;4804147;29;20385;-80
2022/11/06 03:57:01;;;;;;;16.83;9.97;;;5.40;99.90;;;;;;4799218;29;20428;-81
2022/11/06 04:00:09;;;;;;;13.90;8.53;;;5.50;99.90;;;;;;4780837;30;20432;-81
2022/11/06 04:03:06;;;;;;;13.20;8.20;;;5.30;99.90;;;;;;4809429;29;20410;-80
2022/11/06 04:06:08;;;;;;;15.80;8.40;;;5.00;99.90;;;;;;4826926;29;20416;-80
2022/11/06 04:15:11;;;;;;;16.93;8.00;;;4.90;99.90;;;;;;4755566;30;20446;-81
2022/11/06 04:17:56;;;;;;;10.93;8.20;;;5.10;99.90;;;;;;4779031;30;20415;-80
2022/11/06 04:27:59;;;;;;;12.17;8.47;;;5.10;99.90;;;;;;4787327;30;20405;-80
2022/11/06 04:31:13;;;;;;;16.97;10.07;;;5.30;99.90;;;;;;4796607;29;20480;-81
2022/11/06 04:34:15;;;;;;;18.00;10.23;;;5.50;99.90;;;;;;4837425;29;20399;-81
2022/11/06 04:37:11;;;;;;;16.23;10.47;;;5.40;99.90;;;;;;4814180;29;20441;-81
2022/11/06 04:40:21;;;;;;;17.40;9.77;;;5.40;99.90;;;;;;4827102;29;20414;-80
2022/11/06 04:43:14;;;;;;;16.83;9.20;;;5.20;99.90;;;;;;4825734;29;20446;-80
2022/11/06 04:46:02;;;;;;;15.97;9.43;;;5.10;99.90;;;;;;4821732;29;20429;-80
2022/11/06 04:48:48;;;;;;;14.70;8.63;;;4.90;99.90;;;;;;4833783;29;20403;-80
2022/11/06 04:51:43;;;;;;;13.17;8.70;;;5.00;99.90;;;;;;4843916;29;20770;-78
2022/11/06 04:54:49;;;;;;;12.50;9.30;;;5.00;99.90;;;;;;4883507;29;20840;-80
2022/11/06 04:57:36;;;;;;;15.87;9.77;;;4.90;99.90;;;;;;4867527;29;20434;-80
2022/11/06 05:00:21;;;;;;;15.40;7.17;;;4.90;99.90;;;;;;4849749;29;20468;-80
2022/11/06 05:03:10;;;;;;;17.90;9.13;;;5.00;99.90;;;;;;4875207;29;20960;-80
2022/11/06 05:05:54;;;;;;;15.57;9.40;;;5.10;99.90;;;;;;4928568;29;20391;-80
2022/11/06 05:08:45;;;;;;;16.30;9.40;;;5.20;99.90;;;;;;4908354;29;20517;-80
2022/11/06 05:11:37;;;;;;;12.03;8.40;;;5.20;99.90;;;;;;4890966;29;20411;-80
2022/11/06 05:14:49;;;;;;;29.73;9.77;;;5.20;99.90;;;;;;4942110;29;20435;-80
2022/11/06 05:17:39;;;;;;;8.83;7.30;;;5.20;99.90;;;;;;4907620;29;20474;-80
2022/11/06 05:20:28;;;;;;;13.20;9.07;;;5.20;99.90;;;;;;4897917;29;20378;-80
2022/11/06 05:23:14;;;;;;;10.70;7.77;;;5.20;99.90;;;;;;4923854;29;20435;-80
2022/11/06 05:26:01;;;;;;;12.27;8.40;;;5.00;99.90;;;;;;4911047;29;20434;-80
2022/11/06 05:29:08;;;;;;;16.90;8.17;;;4.90;99.90;;;;;;4910918;29;20375;-80
2022/11/06 05:31:54;;;;;;;20.43;10.67;;;4.90;99.90;;;;;;4887420;29;20413;-80
2022/11/06 05:34:41;;;;;;;14.63;9.73;;;4.90;99.90;;;;;;4885620;29;20465;-81
2022/11/06 05:37:29;;;;;;;15.60;7.60;;;5.10;99.90;;;;;;4877923;29;20388;-80
2022/11/06 05:40:21;;;;;;;14.30;9.47;;;5.10;99.90;;;;;;4891631;29;20445;-80
2022/11/06 05:43:06;;;;;;;12.83;9.20;;;5.20;99.90;;;;;;4890830;29;20429;-80
2022/11/06 05:45:53;;;;;;;12.40;8.27;;;5.40;99.90;;;;;;4877948;29;20433;-80
2022/11/06 05:48:38;;;;;;;17.27;9.30;;;5.50;99.90;;;;;;4907776;29;20419;-80
2022/11/06 05:51:24;;;;;;;14.40;9.03;;;5.50;99.90;;;;;;4908940;29;20459;-80
2022/11/06 05:54:10;;;;;;;13.87;8.77;;;5.50;99.90;;;;;;4928275;29;20419;-78
2022/11/06 05:57:16;;;;;;;25.23;9.93;;;5.40;99.90;;;;;;4880869;29;20403;-78
2022/11/06 06:00:06;;;;;;;19.33;9.80;;;5.60;99.90;;;;;;4892738;29;20413;-78
2022/11/06 06:02:52;;;;;;;17.00;9.07;;;5.50;99.90;;;;;;4898487;29;20926;-80
2022/11/06 06:05:39;;;;;;;15.17;9.77;;;5.60;99.90;;;;;;4910871;29;20446;-80
2022/11/06 06:08:26;;;;;;;14.73;9.23;;;5.40;99.90;;;;;;4929624;29;20390;-80
2022/11/06 06:11:10;;;;;;;13.13;7.10;;;5.50;99.90;;;;;;4929100;29;20440;-80
2022/11/06 06:13:55;;;;;;;14.97;9.47;;;5.40;99.90;;;;;;4930219;29;20447;-79
2022/11/06 06:17:03;;;;;;;17.67;9.20;;;5.50;99.90;;;;;;4929432;29;20382;-81
2022/11/06 06:19:53;;;;;;;14.70;7.90;;;5.60;99.90;;;;;;4928632;29;20411;-80
2022/11/06 06:22:38;;;;;;;11.23;7.90;;;5.70;99.90;;;;;;4908431;29;20468;-80
2022/11/06 06:25:28;;;;;;;13.03;9.90;;;5.70;99.90;;;;;;4919750;29;20464;-81
2022/11/06 06:28:14;;;;;;;13.53;8.93;;;5.60;99.90;;;;;;4906082;29;20387;-81
2022/11/06 06:31:04;;;;;;;12.97;9.10;;;5.70;99.90;;;;;;4933735;29;20416;-80
2022/11/06 06:33:53;;;;;;;16.20;9.37;;;5.50;99.90;;;;;;4899166;29;20825;-80
2022/11/06 06:36:38;;;;;;;17.57;9.57;;;5.60;99.90;;;;;;4925410;29;20388;-81
2022/11/06 06:39:22;;;;;;;17.93;9.50;;;5.60;99.90;;;;;;4924397;29;20411;-80
2022/11/06 06:42:09;;;;;;;11.13;7.57;;;5.80;99.90;;;;;;4949239;29;20467;-81
2022/11/06 06:44:57;;;;;;;14.43;8.60;;;5.80;99.90;;;;;;4949597;29;20431;-81
2022/11/06 06:47:45;;;;;;;11.23;7.90;;;6.00;99.90;;;;;;4950656;29;20357;-81
2022/11/06 06:50:32;;;;;;;9.57;8.40;;;5.70;99.90;;;;;;4947363;29;20493;-80
2022/11/06 06:53:21;;;;;;;13.10;8.00;;;5.60;99.90;;;;;;4950028;29;20405;-80
2022/11/06 06:56:08;;;;;;;16.00;9.23;;;5.60;99.90;;;;;;4949762;29;20409;-80
2022/11/06 06:58:54;;;;;;;15.93;10.57;;;5.50;99.90;;;;;;4962687;28;20445;-81
2022/11/06 07:01:41;;;;;;;15.87;9.00;;;5.80;99.90;;;;;;4930039;29;20406;-81
2022/11/06 07:04:30;;;;;;;28.97;8.50;;;6.00;99.90;;;;;;4916451;29;20450;-80
2022/11/06 07:07:15;;;;;;;20.57;9.00;;;5.80;99.90;;;;;;4923796;29;20394;-80
2022/11/06 07:10:04;;;;;;;20.47;10.40;;;5.80;99.90;;;;;;4923871;29;20447;-80
2022/11/06 07:12:49;;;;;;;15.90;10.30;;;5.90;99.90;;;;;;4930324;29;20362;-80
2022/11/06 07:15:34;;;;;;;14.27;9.07;;;5.90;99.90;;;;;;4943290;29;20381;-81
2022/11/06 07:18:22;;;;;;;15.20;9.80;;;5.80;99.90;;;;;;4923102;28;20455;-80
2022/11/06 07:21:29;;;;;;;12.00;7.43;;;5.70;99.90;;;;;;4896900;29;20473;-80
2022/11/06 07:24:17;;;;;;;14.60;7.87;;;5.60;99.90;;;;;;4878779;29;20830;-79
2022/11/06 07:27:06;;;;;;;16.00;9.10;;;5.50;99.90;;;;;;4870175;29;20409;-79
2022/11/06 07:29:53;;;;;;;16.37;9.60;;;5.60;99.90;;;;;;4908068;29;20384;-80
2022/11/06 07:32:40;;;;;;;12.23;8.60;;;5.80;99.90;;;;;;4908038;29;20384;-80
2022/11/06 07:35:31;;;;;;;13.33;8.83;;;6.00;99.90;;;;;;4909375;29;20927;-80
2022/11/06 07:38:18;;;;;;;17.13;9.93;;;6.10;99.90;;;;;;4919282;29;20381;-80
2022/11/06 07:41:06;;;;;;;19.93;12.30;;;6.10;99.90;;;;;;4932380;29;20395;-79
2022/11/06 07:44:11;;;;;;;13.97;8.77;;;6.00;99.90;;;;;;4938024;29;20432;-80
2022/11/06 07:46:57;;;;;;;15.57;8.93;;;5.80;99.90;;;;;;4911123;29;20401;-79
2022/11/06 07:49:43;;;;;;;10.67;8.43;;;5.90;99.90;;;;;;4906707;29;20393;-79
2022/11/06 07:52:29;;;;;;;15.63;9.00;;;6.00;99.90;;;;;;4923199;29;20403;-80
2022/11/06 07:55:15;;;;;;;13.80;9.30;;;5.90;99.90;;;;;;4923129;29;20436;-79
2022/11/06 07:58:00;;;;;;;16.53;8.07;;;6.00;99.90;;;;;;4949679;29;20405;-79
2022/11/06 08:00:58;;;;;;;13.00;9.17;;;6.20;99.90;;;;;;4899189;29;20509;-79
2022/11/06 08:03:48;;;;;;;23.50;9.13;;;6.40;99.90;;;;;;4892095;28;20443;-79
2022/11/06 08:06:33;;;;;;;18.30;8.83;;;6.10;99.90;;;;;;4970100;28;20497;-81
2022/11/06 08:09:25;;;;;;;10.70;8.57;;;6.40;99.90;;;;;;4942875;28;20388;-79
2022/11/06 08:12:31;;;;;;;19.30;8.27;;;6.40;99.90;;;;;;4955258;28;20482;-81
2022/11/06 08:15:37;;;;;;;11.57;9.23;;;6.50;99.90;;;;;;4950928;29;20494;-80
2022/11/06 08:18:23;;;;;;;15.17;9.30;;;6.30;99.90;;;;;;4896922;29;20929;-79
2022/11/06 08:21:09;;;;;;;15.13;8.10;;;6.40;99.90;;;;;;4877210;29;20881;-81
2022/11/06 08:23:57;;;;;;;12.70;8.70;;;6.30;99.90;;;;;;4851390;29;20499;-81
2022/11/06 08:26:43;;;;;;;20.63;9.00;;;6.30;99.90;;;;;;4851985;29;20444;-80
2022/11/06 08:29:28;;;;;;;18.97;10.17;;;6.50;99.90;;;;;;4854341;29;20411;-81
2022/11/06 08:32:15;;;;;;;18.27;10.23;;;6.50;99.90;;;;;;4852730;29;20428;-80
2022/11/06 08:35:00;;;;;;;15.37;8.83;;;6.40;99.90;;;;;;4850642;29;20398;-80
2022/11/06 08:37:46;;;;;;;16.17;9.33;;;6.60;99.90;;;;;;4844293;29;20391;-81
2022/11/06 08:40:38;;;;;;;19.47;10.00;;;6.50;99.90;;;;;;4833040;29;20386;-79
2022/11/06 08:43:25;;;;;;;15.30;9.53;;;6.40;99.90;;;;;;4851376;29;20387;-81
2022/11/06 08:46:12;;;;;;;15.40;10.07;;;6.50;99.90;;;;;;4862525;29;20843;-80
2022/11/06 08:48:59;;;;;;;16.17;9.60;;;6.70;99.90;;;;;;4870226;29;20571;-80
2022/11/06 08:51:47;;;;;;;15.47;9.53;;;6.70;99.90;;;;;;4886797;29;20485;-81
2022/11/06 08:54:38;;;;;;;19.53;11.07;;;6.90;99.90;;;;;;4906057;29;20405;-80
2022/11/06 08:57:22;;;;;;;14.20;9.07;;;6.60;99.90;;;;;;4906860;29;20943;-81
2022/11/06 09:00:10;;;;;;;16.13;9.97;;;6.80;99.90;;;;;;4908451;29;20920;-79
2022/11/06 09:03:00;;;;;;;19.63;10.83;;;7.20;99.90;;;;;;4956420;29;20454;-79
2022/11/06 09:05:49;;;;;;;12.23;9.37;;;7.60;99.90;;;;;;4962555;28;20476;-80
2022/11/06 09:08:36;;;;;;;17.07;12.67;;;7.90;99.90;;;;;;4942765;28;20441;-80
2022/11/06 09:11:25;;;;;;;11.53;9.30;;;8.40;99.90;;;;;;4911540;29;20480;-80
2022/11/06 09:14:10;;;;;;;23.93;9.77;;;8.50;99.90;;;;;;4899456;29;20998;-81
2022/11/06 09:16:57;;;;;;;16.70;10.43;;;9.00;99.90;;;;;;4911601;29;20412;-80
2022/11/06 09:19:42;;;;;;;18.80;10.70;;;8.40;99.90;;;;;;4937752;28;20438;-80
2022/11/06 09:22:30;;;;;;;13.63;8.70;;;8.00;99.90;;;;;;4967838;28;20428;-80
2022/11/06 09:25:17;;;;;;;13.43;10.53;;;8.30;99.90;;;;;;4955660;28;20537;-80
2022/11/06 09:28:03;;;;;;;14.70;10.40;;;9.20;99.90;;;;;;4968016;28;20375;-80
2022/11/06 09:30:47;;;;;;;15.57;9.87;;;10.40;99.90;;;;;;4982406;28;20442;-80
2022/11/06 09:33:32;;;;;;;18.50;9.63;;;11.90;99.90;;;;;;4943697;29;20395;-80
2022/11/06 09:36:16;;;;;;;14.60;9.97;;;12.90;99.90;;;;;;4915592;29;20407;-81
2022/11/06 09:39:08;;;;;;;13.23;9.90;;;13.10;99.90;;;;;;4929138;29;20466;-80
2022/11/06 09:42:00;;;;;;;12.53;9.43;;;13.40;99.90;;;;;;4873007;29;20558;-80
2022/11/06 09:45:06;;;;;;;11.90;7.47;;;13.50;99.90;;;;;;4872619;29;20466;-80
2022/11/06 09:48:15;;;;;;;16.20;8.33;;;13.90;99.90;;;;;;4886816;29;20414;-79
2022/11/06 09:51:30;;;;;;;9.53;7.40;;;12.00;99.90;;;;;;4849151;29;20544;-81
2022/11/06 09:54:30;;;;;;;11.87;9.87;;;12.10;99.90;;;;;;4876401;29;20907;-81
2022/11/06 09:57:39;;;;;;;11.27;7.60;;;12.70;99.90;;;;;;4904408;29;20453;-80
2022/11/06 10:00:24;;;;;;;10.63;8.00;;;12.20;99.90;;;;;;4897851;29;20531;-81
2022/11/06 10:03:20;;;;;;;10.33;7.70;;;13.70;99.90;;;;;;4900363;29;20919;-80
2022/11/06 10:06:07;;;;;;;12.03;8.20;;;14.10;99.90;;;;;;4899511;29;20568;-81
2022/11/06 10:09:01;;;;;;;9.27;7.73;;;13.50;99.90;;;;;;4887084;29;20935;-80
2022/11/06 10:12:24;;;;;;;19.00;14.80;;;13.60;99.90;;;;;;4892731;29;20377;-81
2022/11/06 10:15:45;;;;;;;11.60;8.93;;;13.10;99.90;;;;;;4912099;29;20419;-82
2022/11/06 10:19:04;;;;;;;9.60;7.30;;;13.70;99.90;;;;;;4924018;29;20484;-82
2022/11/06 10:22:04;;;;;;;10.13;7.23;;;13.90;99.90;;;;;;4886079;29;20803;-81
2022/11/06 10:25:21;;;;;;;9.73;7.57;;;15.00;99.90;;;;;;4865242;29;20470;-81
2022/11/06 10:28:48;;;;;;;8.30;7.30;;;15.80;99.90;;;;;;4852682;29;20431;-81
2022/11/06 10:31:59;;;;;;;9.30;7.57;;;18.10;99.90;;;;;;4868023;29;20411;-81
2022/11/06 10:34:52;;;;;;;10.40;8.27;;;17.20;99.90;;;;;;4867620;29;20427;-81
2022/11/06 10:37:47;;;;;;;9.20;7.40;;;18.20;99.90;;;;;;4856358;29;20551;-81
2022/11/06 10:40:33;;;;;;;14.80;8.30;;;17.70;99.90;;;;;;4846598;29;20876;-81
2022/11/06 10:43:44;;;;;;;11.57;7.40;;;16.00;99.90;;;;;;4861768;29;20439;-81
2022/11/06 10:46:38;;;;;;;11.70;8.73;;;16.50;99.90;;;;;;4843973;29;20434;-81
2022/11/06 10:49:53;;;;;;;8.57;7.70;;;16.60;99.90;;;;;;4859942;29;20415;-84
2022/11/06 10:52:53;;;;;;;9.20;7.63;;;14.40;99.90;;;;;;4870509;29;20425;-82
2022/11/06 10:55:59;;;;;;;7.70;6.90;;;16.50;99.90;;;;;;4878090;29;20412;-81
2022/11/06 10:58:47;;;;;;;8.50;7.70;;;15.80;99.90;;;;;;4897159;29;20419;-81
2022/11/06 11:01:36;;;;;;;9.67;8.70;;;14.80;99.90;;;;;;4929186;29;20483;-81
2022/11/06 11:04:26;;;;;;;11.60;8.00;;;14.00;99.90;;;;;;4927972;29;20506;-81
2022/11/06 11:07:15;;;;;;;11.57;8.00;;;14.90;99.90;;;;;;4902101;29;20862;-81
2022/11/06 11:10:22;;;;;;;11.00;8.37;;;14.60;99.90;;;;;;4915105;29;20964;-82
2022/11/06 11:13:22;;;;;;;8.27;6.90;;;14.20;99.90;;;;;;4990511;28;20389;-82
2022/11/06 11:16:23;;;;;;;10.30;7.07;;;13.70;99.90;;;;;;4979781;28;20409;-81
2022/11/06 11:19:40;;;;;;;9.93;7.27;;;14.20;99.90;;;;;;4931529;29;20534;-82
2022/11/06 11:22:50;;;;;;;11.33;7.90;;;13.90;99.90;;;;;;4925583;29;20408;-81
2022/11/06 11:25:36;;;;;;;10.13;8.60;;;13.50;99.90;;;;;;4885710;29;20503;-81
2022/11/06 11:28:37;;;;;;;9.27;7.13;;;14.10;99.90;;;;;;4886998;29;20847;-81
2022/11/06 11:31:31;;;;;;;9.10;7.70;;;14.70;99.90;;;;;;4873095;29;20761;-82
2022/11/06 11:34:23;;;;;;;13.10;8.27;;;14.50;99.90;;;;;;4875875;29;20470;-82
2022/11/06 11:37:30;;;;;;;9.97;8.97;;;15.40;99.90;;;;;;4876024;29;20451;-82
2022/11/06 11:40:38;;;;;;;9.47;8.33;;;15.20;99.90;;;;;;4864101;29;20893;-81
2022/11/06 11:43:26;;;;;;;10.77;9.17;;;13.50;99.90;;;;;;4875351;29;20450;-80
2022/11/06 11:46:18;;;;;;;12.17;8.93;;;12.80;99.90;;;;;;4903967;29;20430;-82
2022/11/06 11:49:04;;;;;;;13.60;8.37;;;15.10;99.90;;;;;;4875778;29;20447;-81
2022/11/06 11:51:50;;;;;;;9.40;8.20;;;15.40;99.90;;;;;;4906167;29;20452;-82
2022/11/06 11:54:35;;;;;;;11.00;9.17;;;14.90;99.90;;;;;;4919836;29;20513;-81
2022/11/06 11:57:23;;;;;;;10.70;9.60;;;13.20;99.90;;;;;;4925407;29;20544;-80
2022/11/06 12:00:16;;;;;;;14.17;8.80;;;11.70;99.90;;;;;;4939407;29;20411;-81
2022/11/06 12:03:06;;;;;;;9.37;7.90;;;14.40;99.90;;;;;;4940276;29;20474;-81
2022/11/06 12:05:52;;;;;;;9.10;8.20;;;14.70;99.90;;;;;;4939554;29;20507;-82
2022/11/06 12:08:43;;;;;;;9.70;8.70;;;14.40;99.90;;;;;;4939565;29;20488;-82
2022/11/06 12:11:29;;;;;;;10.73;8.73;;;16.30;99.90;;;;;;4941066;29;20991;-81
2022/11/06 12:14:26;;;;;;;8.47;7.67;;;15.70;99.90;;;;;;4942230;29;20455;-80
2022/11/06 12:17:20;;;;;;;9.67;8.77;;;16.00;99.90;;;;;;4941178;29;20423;-82
2022/11/06 12:20:11;;;;;;;10.20;7.63;;;14.70;99.90;;;;;;4965131;28;20420;-81
2022/11/06 12:22:57;;;;;;;9.40;8.43;;;15.10;99.90;;;;;;4965173;28;20390;-81
2022/11/06 12:25:43;;;;;;;8.90;8.00;;;15.30;99.90;;;;;;4997042;28;20455;-82
2022/11/06 12:28:30;;;;;;;11.20;9.50;;;15.10;99.90;;;;;;4998679;28;20187;-82
2022/11/06 12:31:39;;;;;;;13.43;10.10;;;14.30;99.90;;;;;;4983023;28;20427;-81
2022/11/06 12:34:50;;;;;;;9.33;8.53;;;14.10;99.90;;;;;;4982876;28;20909;-82
2022/11/06 12:37:54;;;;;;;9.50;8.70;;;14.10;99.90;;;;;;4986064;28;20448;-80
2022/11/06 12:40:40;;;;;;;9.63;8.70;;;15.10;99.90;;;;;;4997321;28;20750;-81
2022/11/06 12:43:43;;;;;;;9.33;8.43;;;15.20;99.90;;;;;;4982830;28;20420;-80
2022/11/06 12:47:08;;;;;;;8.40;7.50;;;15.40;99.90;;;;;;4982460;28;20489;-81
2022/11/06 12:50:11;;;;;;;11.03;8.20;;;14.40;99.90;;;;;;4993923;28;20404;-81
2022/11/06 12:53:13;;;;;;;14.87;10.10;;;15.20;99.90;;;;;;5003493;28;20376;-81
2022/11/06 12:56:11;;;;;;;13.10;9.83;;;14.90;99.90;;;;;;5019772;28;20468;-80
2022/11/06 12:59:16;;;;;;;11.60;8.83;;;15.10;99.90;;;;;;4993196;28;20915;-80
2022/11/06 13:02:27;;;;;;;11.80;9.27;;;15.60;99.90;;;;;;5005187;28;20388;-80
2022/11/06 13:05:27;;;;;;;10.63;9.53;;;16.40;99.90;;;;;;5003125;28;20505;-81
2022/11/06 13:08:43;;;;;;;12.47;10.37;;;15.60;99.90;;;;;;5017973;28;20388;-81
2022/11/06 13:11:50;;;;;;;13.07;9.77;;;15.70;99.90;;;;;;5007585;28;20384;-82
2022/11/06 13:14:49;;;;;;;8.07;7.27;;;13.70;99.90;;;;;;5004890;28;20393;-83
2022/11/06 13:17:45;;;;;;;9.60;7.90;;;13.90;99.90;;;;;;5005571;28;20458;-80
2022/11/06 13:20:50;;;;;;;10.47;8.40;;;14.20;99.90;;;;;;5003483;28;20882;-80
2022/11/06 13:23:41;;;;;;;10.73;9.63;;;13.70;99.90;;;;;;4989246;28;20388;-81
2022/11/06 13:26:40;;;;;;;10.13;8.43;;;13.80;99.90;;;;;;4989842;28;20400;-81
2022/11/06 13:29:25;;;;;;;8.43;7.17;;;13.60;99.90;;;;;;5017982;28;20748;-81
2022/11/06 13:32:16;;;;;;;11.10;9.40;;;13.50;99.90;;;;;;5024511;28;20435;-81
2022/11/06 13:35:25;;;;;;;11.60;7.63;;;13.80;99.90;;;;;;4987371;28;20741;-79
2022/11/06 13:38:31;;;;;;;10.10;8.27;;;13.80;99.90;;;;;;4989379;28;20427;-79
2022/11/06 13:41:24;;;;;;;9.53;6.97;;;13.90;99.90;;;;;;4997781;28;20404;-79
2022/11/06 13:44:17;;;;;;;8.90;6.80;;;14.10;99.90;;;;;;4996746;28;20443;-79
2022/11/06 13:47:09;;;;;;;12.10;7.83;;;13.70;99.90;;;;;;4997079;28;20425;-79
2022/11/06 13:50:13;;;;;;;9.30;7.43;;;13.40;99.90;;;;;;4986567;28;20483;-80
2022/11/06 13:53:08;;;;;;;10.37;7.30;;;14.10;99.90;;;;;;5005439;28;20403;-80
2022/11/06 13:56:27;;;;;;;7.53;6.83;;;14.00;99.90;;;;;;5001832;28;20395;-81
2022/11/06 13:59:33;;;;;;;6.90;6.20;;;13.30;99.90;;;;;;5015346;28;20480;-80
2022/11/06 14:02:35;;;;;;;6.50;5.87;;;13.00;99.90;;;;;;5016785;28;20557;-80
2022/11/06 14:05:57;;;;;;;10.80;7.10;;;12.70;99.90;;;;;;5025087;28;21020;-82
2022/11/06 14:08:55;;;;;;;11.23;6.90;;;12.50;99.90;;;;;;5020339;28;20416;-80
2022/11/06 14:11:50;;;;;;;11.20;7.63;;;12.80;99.90;;;;;;5021251;28;20403;-82
2022/11/06 14:14:34;;;;;;;11.60;6.60;;;11.90;99.90;;;;;;5020755;28;20399;-82
2022/11/06 14:17:22;;;;;;;10.00;6.40;;;11.60;99.90;;;;;;5021929;28;20375;-82
2022/11/06 14:20:28;;;;;;;8.67;6.80;;;12.00;99.90;;;;;;5025939;28;20416;-80
2022/11/06 14:23:44;;;;;;;11.60;7.03;;;12.00;99.90;;;;;;5013090;28;20448;-81
2022/11/06 14:26:39;;;;;;;10.00;6.40;;;11.80;99.90;;;;;;5030837;28;20875;-80
2022/11/06 14:29:53;;;;;;;7.80;6.40;;;11.70;99.90;;;;;;5026281;28;20388;-80
2022/11/06 14:32:41;;;;;;;9.17;7.03;;;11.40;99.90;;;;;;5019447;28;20378;-79
2022/11/06 14:35:47;;;;;;;8.27;6.20;;;11.30;99.90;;;;;;5018933;28;20363;-81
2022/11/06 14:38:34;;;;;;;7.90;6.33;;;11.20;99.90;;;;;;5017454;28;20708;-81
2022/11/06 14:41:53;;;;;;;8.30;6.47;;;11.20;99.90;;;;;;5018819;28;20420;-80
2022/11/06 14:44:42;;;;;;;8.50;7.00;;;11.10;99.90;;;;;;5017039;28;20539;-81
2022/11/06 14:47:40;;;;;;;10.60;6.40;;;11.20;99.90;;;;;;5018916;28;20410;-81
2022/11/06 14:50:34;;;;;;;7.40;6.03;;;11.10;99.90;;;;;;5018269;28;20473;-81
2022/11/06 14:53:28;;;;;;;9.90;6.53;;;11.10;99.90;;;;;;5019587;28;20863;-82
2022/11/06 14:56:33;;;;;;;7.57;5.67;;;11.10;99.90;;;;;;5019008;28;20439;-81
2022/11/06 14:59:21;;;;;;;9.60;6.70;;;11.10;99.90;;;;;;5019581;28;20799;-80
2022/11/06 15:02:20;;;;;;;12.17;7.60;;;11.20;99.90;;;;;;5019535;28;20387;-80
2022/11/06 15:05:12;;;;;;;6.73;5.23;;;10.90;99.90;;;;;;5018933;28;20532;-80
2022/11/06 15:07:58;;;;;;;8.43;6.37;;;10.50;99.90;;;;;;5003998;28;20403;-80
2022/11/06 15:10:47;;;;;;;7.63;5.67;;;10.50;99.90;;;;;;5007170;28;20408;-81
2022/11/06 15:13:32;;;;;;;7.83;5.83;;;10.60;99.90;;;;;;5020878;28;20835;-79
2022/11/06 15:16:16;;;;;;;11.20;7.53;;;10.70;99.90;;;;;;5019830;28;20447;-79
2022/11/06 15:19:03;;;;;;;8.07;7.27;;;10.80;99.90;;;;;;5019852;28;20508;-81